KJFZ

Tazewell County Airport

Richlands, Virginia, USA
METAR KJFZ 171635Z AUTO 23006KT 10SM CLR 25/19 A3021 RMK AO2 T02500192
Observed Flight Rules
Aug-17 @ 16:35 UTC (15 minutes ago) Visual Flight Rules
Wind Visibility Clouds
230° at 6 knots 10 miles
  • Clear skies
Temperatures Readings
Current 25°C / 77°F
Dewpoint 19°C / 66°F
Humidity 69%
Altimeter 30.21" Hg
Pressure 1023 hPa
Elevation 809
METAR KJFZ 171635Z AUTO 23006KT 10SM CLR 25/19 A3021 RMK AO2 T02500192
Observed Flight Rules
Aug-17 @ 16:35 UTC
(15 minutes ago)
VFR
Wind Visibility
230° at 6 knots 10 miles
Clouds
  • Clear skies
Temperature Dewpoint
25°C / 77°F 19°C / 66°F
Humidity Altimeter Pressure
69% 30.21" Hg 1023 hPa